sensor_id;sensor_type;location;lat;lon;timestamp;temperature;humidity
14771;DHT22;7477;45.222;5.688;2024-03-08T00:01:15;5.20;99.90
14771;DHT22;7477;45.222;5.688;2024-03-08T00:04:35;5.10;99.90
14771;DHT22;7477;45.222;5.688;2024-03-08T00:07:54;5.10;99.90
14771;DHT22;7477;45.222;5.688;2024-03-08T00:11:14;5.20;99.90
14771;DHT22;7477;45.222;5.688;2024-03-08T00:14:33;5.10;99.90
14771;DHT22;7477;45.222;5.688;2024-03-08T00:17:52;5.00;99.90
14771;DHT22;7477;45.222;5.688;2024-03-08T00:21:13;4.90;99.90
14771;DHT22;7477;45.222;5.688;2024-03-08T00:24:32;4.90;99.90
14771;DHT22;7477;45.222;5.688;2024-03-08T00:27:51;4.90;99.90
14771;DHT22;7477;45.222;5.688;2024-03-08T00:31:14;4.90;99.90
14771;DHT22;7477;45.222;5.688;2024-03-08T00:34:37;4.90;99.90
14771;DHT22;7477;45.222;5.688;2024-03-08T00:37:56;4.90;99.90
14771;DHT22;7477;45.222;5.688;2024-03-08T00:41:15;5.00;99.90
14771;DHT22;7477;45.222;5.688;2024-03-08T00:44:35;5.00;99.90
14771;DHT22;7477;45.222;5.688;2024-03-08T00:47:57;5.00;99.90
14771;DHT22;7477;45.222;5.688;2024-03-08T00:51:17;5.10;99.90
14771;DHT22;7477;45.222;5.688;2024-03-08T00:54:36;5.20;99.90
14771;DHT22;7477;45.222;5.688;2024-03-08T00:57:55;5.30;99.90
14771;DHT22;7477;45.222;5.688;2024-03-08T01:01:15;5.20;99.90
14771;DHT22;7477;45.222;5.688;2024-03-08T01:04:35;5.20;99.90
14771;DHT22;7477;45.222;5.688;2024-03-08T01:07:54;5.20;99.90
14771;DHT22;7477;45.222;5.688;2024-03-08T01:11:13;5.40;99.90
14771;DHT22;7477;45.222;5.688;2024-03-08T01:14:33;5.30;99.90
14771;DHT22;7477;45.222;5.688;2024-03-08T01:17:52;5.30;99.90
14771;DHT22;7477;45.222;5.688;2024-03-08T01:21:11;5.30;99.90
14771;DHT22;7477;45.222;5.688;2024-03-08T01:24:30;5.20;99.90
14771;DHT22;7477;45.222;5.688;2024-03-08T01:27:50;5.20;99.90
14771;DHT22;7477;45.222;5.688;2024-03-08T01:31:08;5.20;99.90
14771;DHT22;7477;45.222;5.688;2024-03-08T01:34:28;5.20;99.90
14771;DHT22;7477;45.222;5.688;2024-03-08T01:37:48;5.10;99.90
14771;DHT22;7477;45.222;5.688;2024-03-08T01:41:08;5.10;99.90
14771;DHT22;7477;45.222;5.688;2024-03-08T01:44:28;5.10;99.90
14771;DHT22;7477;45.222;5.688;2024-03-08T01:47:47;5.30;99.90
14771;DHT22;7477;45.222;5.688;2024-03-08T01:51:07;5.10;99.90
14771;DHT22;7477;45.222;5.688;2024-03-08T01:54:27;5.10;99.90
14771;DHT22;7477;45.222;5.688;2024-03-08T01:57:47;5.20;99.90
14771;DHT22;7477;45.222;5.688;2024-03-08T02:01:07;5.10;99.90
14771;DHT22;7477;45.222;5.688;2024-03-08T02:04:29;5.00;99.90
14771;DHT22;7477;45.222;5.688;2024-03-08T02:07:50;5.00;99.90
14771;DHT22;7477;45.222;5.688;2024-03-08T02:11:09;5.00;99.90
14771;DHT22;7477;45.222;5.688;2024-03-08T02:14:29;4.90;99.90
14771;DHT22;7477;45.222;5.688;2024-03-08T02:17:50;4.90;99.90
14771;DHT22;7477;45.222;5.688;2024-03-08T02:21:09;4.90;99.90
14771;DHT22;7477;45.222;5.688;2024-03-08T02:24:28;4.80;99.90
14771;DHT22;7477;45.222;5.688;2024-03-08T02:27:48;4.70;99.90
14771;DHT22;7477;45.222;5.688;2024-03-08T02:31:07;4.70;99.90
14771;DHT22;7477;45.222;5.688;2024-03-08T02:34:28;4.70;99.90
14771;DHT22;7477;45.222;5.688;2024-03-08T02:37:50;4.60;99.90
14771;DHT22;7477;45.222;5.688;2024-03-08T02:41:09;4.60;99.90
14771;DHT22;7477;45.222;5.688;2024-03-08T02:44:30;4.60;99.90
14771;DHT22;7477;45.222;5.688;2024-03-08T02:47:49;4.80;99.90
14771;DHT22;7477;45.222;5.688;2024-03-08T02:51:09;4.70;99.90
14771;DHT22;7477;45.222;5.688;2024-03-08T02:54:29;4.60;99.90
14771;DHT22;7477;45.222;5.688;2024-03-08T02:57:48;4.60;99.90
14771;DHT22;7477;45.222;5.688;2024-03-08T03:01:08;4.60;99.90
14771;DHT22;7477;45.222;5.688;2024-03-08T03:04:28;4.40;99.90
14771;DHT22;7477;45.222;5.688;2024-03-08T03:07:47;4.40;99.90
14771;DHT22;7477;45.222;5.688;2024-03-08T03:11:07;4.50;99.90
14771;DHT22;7477;45.222;5.688;2024-03-08T03:14:26;4.30;99.90
14771;DHT22;7477;45.222;5.688;2024-03-08T03:17:50;4.30;99.90
14771;DHT22;7477;45.222;5.688;2024-03-08T03:21:13;4.20;99.90
14771;DHT22;7477;45.222;5.688;2024-03-08T03:24:33;4.10;99.90
14771;DHT22;7477;45.222;5.688;2024-03-08T03:27:53;4.10;99.90
14771;DHT22;7477;45.222;5.688;2024-03-08T03:31:15;4.00;99.90
14771;DHT22;7477;45.222;5.688;2024-03-08T03:34:36;4.00;99.90
14771;DHT22;7477;45.222;5.688;2024-03-08T03:37:55;4.00;99.90
14771;DHT22;7477;45.222;5.688;2024-03-08T03:41:24;4.20;99.90
14771;DHT22;7477;45.222;5.688;2024-03-08T03:44:45;4.10;99.90
14771;DHT22;7477;45.222;5.688;2024-03-08T03:48:06;4.10;99.90
14771;DHT22;7477;45.222;5.688;2024-03-08T10:39:25;8.00;99.90
14771;DHT22;7477;45.222;5.688;2024-03-08T10:46:21;8.20;99.90
14771;DHT22;7477;45.222;5.688;2024-03-08T10:53:30;8.40;99.90
14771;DHT22;7477;45.222;5.688;2024-03-08T10:56:49;8.70;99.90
14771;DHT22;7477;45.222;5.688;2024-03-08T11:00:11;8.90;99.90
14771;DHT22;7477;45.222;5.688;2024-03-08T11:07:01;9.30;99.90
14771;DHT22;7477;45.222;5.688;2024-03-08T11:10:28;9.20;99.90
14771;DHT22;7477;45.222;5.688;2024-03-08T11:13:47;9.10;99.90
14771;DHT22;7477;45.222;5.688;2024-03-08T11:17:06;9.20;99.90
14771;DHT22;7477;45.222;5.688;2024-03-08T11:20:25;9.20;99.90
14771;DHT22;7477;45.222;5.688;2024-03-08T11:24:06;9.20;99.90
14771;DHT22;7477;45.222;5.688;2024-03-08T11:27:30;9.20;99.90
14771;DHT22;7477;45.222;5.688;2024-03-08T11:34:19;9.30;99.90
14771;DHT22;7477;45.222;5.688;2024-03-08T11:37:38;9.40;99.90
14771;DHT22;7477;45.222;5.688;2024-03-08T11:40:57;9.40;99.90
14771;DHT22;7477;45.222;5.688;2024-03-08T11:44:16;9.50;99.90
14771;DHT22;7477;45.222;5.688;2024-03-08T11:47:36;9.50;99.90
14771;DHT22;7477;45.222;5.688;2024-03-08T11:51:00;9.60;99.90
14771;DHT22;7477;45.222;5.688;2024-03-08T11:54:21;9.70;99.90
14771;DHT22;7477;45.222;5.688;2024-03-08T11:57:40;9.70;99.90
14771;DHT22;7477;45.222;5.688;2024-03-08T12:01:05;9.90;99.90
14771;DHT22;7477;45.222;5.688;2024-03-08T12:04:32;9.80;99.90
14771;DHT22;7477;45.222;5.688;2024-03-08T12:07:58;9.70;99.90
14771;DHT22;7477;45.222;5.688;2024-03-08T12:11:20;9.70;99.90
14771;DHT22;7477;45.222;5.688;2024-03-08T12:14:43;9.60;99.90
14771;DHT22;7477;45.222;5.688;2024-03-08T12:18:04;9.60;99.90
14771;DHT22;7477;45.222;5.688;2024-03-08T12:21:26;9.70;99.90
14771;DHT22;7477;45.222;5.688;2024-03-08T12:25:03;9.80;99.90
14771;DHT22;7477;45.222;5.688;2024-03-08T12:28:26;10.00;99.90
14771;DHT22;7477;45.222;5.688;2024-03-08T12:31:46;10.20;99.90
14771;DHT22;7477;45.222;5.688;2024-03-08T12:35:07;10.10;99.90
14771;DHT22;7477;45.222;5.688;2024-03-08T12:38:29;10.00;99.90
14771;DHT22;7477;45.222;5.688;2024-03-08T12:41:50;10.10;99.90
14771;DHT22;7477;45.222;5.688;2024-03-08T12:45:14;10.20;99.90
14771;DHT22;7477;45.222;5.688;2024-03-08T12:48:34;10.10;99.70
14771;DHT22;7477;45.222;5.688;2024-03-08T12:51:54;10.00;99.60
14771;DHT22;7477;45.222;5.688;2024-03-08T12:55:14;10.10;99.80
14771;DHT22;7477;45.222;5.688;2024-03-08T12:58:35;10.20;99.90
14771;DHT22;7477;45.222;5.688;2024-03-08T13:01:55;10.20;99.90
14771;DHT22;7477;45.222;5.688;2024-03-08T13:05:20;10.20;99.90
14771;DHT22;7477;45.222;5.688;2024-03-08T13:08:39;10.30;99.90
14771;DHT22;7477;45.222;5.688;2024-03-08T13:11:58;10.30;99.90
14771;DHT22;7477;45.222;5.688;2024-03-08T13:15:19;10.40;99.90
14771;DHT22;7477;45.222;5.688;2024-03-08T13:18:39;10.30;99.90
14771;DHT22;7477;45.222;5.688;2024-03-08T13:21:59;10.30;99.90
14771;DHT22;7477;45.222;5.688;2024-03-08T13:25:19;10.20;99.90
14771;DHT22;7477;45.222;5.688;2024-03-08T13:28:39;10.10;99.90
14771;DHT22;7477;45.222;5.688;2024-03-08T13:31:58;10.10;99.90
14771;DHT22;7477;45.222;5.688;2024-03-08T13:35:20;10.10;99.90
14771;DHT22;7477;45.222;5.688;2024-03-08T13:38:48;10.10;99.90
14771;DHT22;7477;45.222;5.688;2024-03-08T13:42:08;10.00;99.90
14771;DHT22;7477;45.222;5.688;2024-03-08T13:45:31;10.00;99.90
14771;DHT22;7477;45.222;5.688;2024-03-08T13:48:52;10.00;99.90
14771;DHT22;7477;45.222;5.688;2024-03-08T13:52:13;10.10;99.90
14771;DHT22;7477;45.222;5.688;2024-03-08T13:55:34;10.10;99.90
14771;DHT22;7477;45.222;5.688;2024-03-08T13:58:53;10.20;99.90
14771;DHT22;7477;45.222;5.688;2024-03-08T14:02:15;10.30;99.90
14771;DHT22;7477;45.222;5.688;2024-03-08T14:05:45;10.30;99.90
14771;DHT22;7477;45.222;5.688;2024-03-08T14:09:05;10.60;99.90
14771;DHT22;7477;45.222;5.688;2024-03-08T14:12:27;11.00;99.90
14771;DHT22;7477;45.222;5.688;2024-03-08T14:15:46;11.70;99.90
14771;DHT22;7477;45.222;5.688;2024-03-08T14:19:06;11.80;99.90
14771;DHT22;7477;45.222;5.688;2024-03-08T14:22:25;11.00;99.90
14771;DHT22;7477;45.222;5.688;2024-03-08T14:25:44;10.80;99.90
14771;DHT22;7477;45.222;5.688;2024-03-08T14:29:05;11.80;99.90
14771;DHT22;7477;45.222;5.688;2024-03-08T14:32:24;12.10;99.90
14771;DHT22;7477;45.222;5.688;2024-03-08T14:35:43;11.90;99.90
14771;DHT22;7477;45.222;5.688;2024-03-08T14:39:03;11.20;99.90
14771;DHT22;7477;45.222;5.688;2024-03-08T14:42:22;12.00;99.90
14771;DHT22;7477;45.222;5.688;2024-03-08T14:45:42;12.60;99.90
14771;DHT22;7477;45.222;5.688;2024-03-08T14:49:01;12.50;99.90
14771;DHT22;7477;45.222;5.688;2024-03-08T14:52:20;12.70;99.90
14771;DHT22;7477;45.222;5.688;2024-03-08T14:55:48;11.50;99.90
14771;DHT22;7477;45.222;5.688;2024-03-08T14:59:07;12.60;99.90
14771;DHT22;7477;45.222;5.688;2024-03-08T15:02:28;11.80;99.90
14771;DHT22;7477;45.222;5.688;2024-03-08T15:05:47;12.40;99.90
14771;DHT22;7477;45.222;5.688;2024-03-08T15:09:08;12.90;99.90
14771;DHT22;7477;45.222;5.688;2024-03-08T15:12:31;12.00;99.90
14771;DHT22;7477;45.222;5.688;2024-03-08T15:15:50;12.40;99.90
14771;DHT22;7477;45.222;5.688;2024-03-08T15:19:16;11.40;99.90
14771;DHT22;7477;45.222;5.688;2024-03-08T15:22:36;11.30;99.90
14771;DHT22;7477;45.222;5.688;2024-03-08T15:25:58;11.20;99.90
14771;DHT22;7477;45.222;5.688;2024-03-08T15:29:17;11.60;99.90
14771;DHT22;7477;45.222;5.688;2024-03-08T15:32:47;12.40;99.90
14771;DHT22;7477;45.222;5.688;2024-03-08T15:36:06;12.50;99.90
14771;DHT22;7477;45.222;5.688;2024-03-08T15:39:30;12.40;99.90
14771;DHT22;7477;45.222;5.688;2024-03-08T15:42:55;12.20;99.90
14771;DHT22;7477;45.222;5.688;2024-03-08T15:46:14;11.40;99.90
14771;DHT22;7477;45.222;5.688;2024-03-08T15:49:34;11.50;99.90
14771;DHT22;7477;45.222;5.688;2024-03-08T15:52:53;11.90;99.90
14771;DHT22;7477;45.222;5.688;2024-03-08T15:56:12;12.00;99.90
14771;DHT22;7477;45.222;5.688;2024-03-08T15:59:32;12.20;99.90
14771;DHT22;7477;45.222;5.688;2024-03-08T16:02:56;11.70;99.90
14771;DHT22;7477;45.222;5.688;2024-03-08T16:06:17;12.10;99.90
14771;DHT22;7477;45.222;5.688;2024-03-08T16:09:40;12.40;99.90
14771;DHT22;7477;45.222;5.688;2024-03-08T16:12:59;12.40;99.90
14771;DHT22;7477;45.222;5.688;2024-03-08T16:16:20;12.60;99.90
14771;DHT22;7477;45.222;5.688;2024-03-08T16:19:42;12.40;99.90
14771;DHT22;7477;45.222;5.688;2024-03-08T16:23:01;12.10;99.90
14771;DHT22;7477;45.222;5.688;2024-03-08T16:26:20;11.40;99.90
14771;DHT22;7477;45.222;5.688;2024-03-08T16:29:42;11.60;99.90
14771;DHT22;7477;45.222;5.688;2024-03-08T16:33:06;11.90;99.90
14771;DHT22;7477;45.222;5.688;2024-03-08T16:36:26;11.70;99.90
14771;DHT22;7477;45.222;5.688;2024-03-08T16:39:46;12.10;99.90
14771;DHT22;7477;45.222;5.688;2024-03-08T16:43:05;12.30;99.90
14771;DHT22;7477;45.222;5.688;2024-03-08T16:46:29;11.90;99.90
14771;DHT22;7477;45.222;5.688;2024-03-08T16:49:51;11.20;99.90
14771;DHT22;7477;45.222;5.688;2024-03-08T16:53:10;10.80;99.90
14771;DHT22;7477;45.222;5.688;2024-03-08T16:56:30;10.80;99.90
14771;DHT22;7477;45.222;5.688;2024-03-08T16:59:50;10.60;99.90
14771;DHT22;7477;45.222;5.688;2024-03-08T17:03:09;10.70;99.90
14771;DHT22;7477;45.222;5.688;2024-03-08T17:06:31;10.50;99.90
14771;DHT22;7477;45.222;5.688;2024-03-08T17:09:50;10.40;99.90
14771;DHT22;7477;45.222;5.688;2024-03-08T17:13:09;10.30;99.90
14771;DHT22;7477;45.222;5.688;2024-03-08T17:16:29;10.30;99.90
14771;DHT22;7477;45.222;5.688;2024-03-08T17:19:48;10.10;99.90
14771;DHT22;7477;45.222;5.688;2024-03-08T17:23:09;9.90;99.90
14771;DHT22;7477;45.222;5.688;2024-03-08T17:26:32;9.90;99.90
14771;DHT22;7477;45.222;5.688;2024-03-08T17:29:51;9.80;99.90
14771;DHT22;7477;45.222;5.688;2024-03-08T17:33:13;9.70;99.90
14771;DHT22;7477;45.222;5.688;2024-03-08T17:36:40;9.60;99.90
14771;DHT22;7477;45.222;5.688;2024-03-08T17:40:00;9.60;99.90
14771;DHT22;7477;45.222;5.688;2024-03-08T17:43:24;9.50;99.90
14771;DHT22;7477;45.222;5.688;2024-03-08T17:46:46;9.40;99.90
14771;DHT22;7477;45.222;5.688;2024-03-08T17:50:09;9.30;99.90
14771;DHT22;7477;45.222;5.688;2024-03-08T17:53:33;9.30;99.90
14771;DHT22;7477;45.222;5.688;2024-03-08T17:56:53;9.20;99.90
14771;DHT22;7477;45.222;5.688;2024-03-08T18:00:19;9.30;99.90
14771;DHT22;7477;45.222;5.688;2024-03-08T18:03:44;9.20;99.90
14771;DHT22;7477;45.222;5.688;2024-03-08T18:07:04;9.20;99.90
14771;DHT22;7477;45.222;5.688;2024-03-08T18:10:25;9.20;99.90
14771;DHT22;7477;45.222;5.688;2024-03-08T18:13:46;9.10;99.90
14771;DHT22;7477;45.222;5.688;2024-03-08T18:17:06;9.10;99.90
14771;DHT22;7477;45.222;5.688;2024-03-08T18:20:31;9.10;99.90
14771;DHT22;7477;45.222;5.688;2024-03-08T18:23:50;9.50;99.90
14771;DHT22;7477;45.222;5.688;2024-03-08T18:27:10;11.70;99.90
14771;DHT22;7477;45.222;5.688;2024-03-08T18:30:29;12.00;99.90
14771;DHT22;7477;45.222;5.688;2024-03-08T18:33:48;11.50;99.90
14771;DHT22;7477;45.222;5.688;2024-03-08T18:37:07;11.30;99.90
14771;DHT22;7477;45.222;5.688;2024-03-08T18:40:30;11.80;99.90
14771;DHT22;7477;45.222;5.688;2024-03-08T18:43:49;12.00;99.90
14771;DHT22;7477;45.222;5.688;2024-03-08T18:47:08;12.70;99.90
14771;DHT22;7477;45.222;5.688;2024-03-08T18:50:28;12.40;99.90
14771;DHT22;7477;45.222;5.688;2024-03-08T18:53:47;11.00;99.90
14771;DHT22;7477;45.222;5.688;2024-03-08T18:57:06;11.00;99.90
14771;DHT22;7477;45.222;5.688;2024-03-08T19:00:27;11.70;99.90
14771;DHT22;7477;45.222;5.688;2024-03-08T19:03:49;11.90;99.90
14771;DHT22;7477;45.222;5.688;2024-03-08T19:07:09;11.30;99.90
14771;DHT22;7477;45.222;5.688;2024-03-08T19:10:29;11.90;99.90
14771;DHT22;7477;45.222;5.688;2024-03-08T19:13:49;11.90;99.90
14771;DHT22;7477;45.222;5.688;2024-03-08T19:17:08;10.90;99.90
14771;DHT22;7477;45.222;5.688;2024-03-08T19:20:30;10.10;99.90
14771;DHT22;7477;45.222;5.688;2024-03-08T19:23:52;11.10;99.90
14771;DHT22;7477;45.222;5.688;2024-03-08T19:27:13;11.10;99.90
14771;DHT22;7477;45.222;5.688;2024-03-08T19:30:33;10.40;99.90
14771;DHT22;7477;45.222;5.688;2024-03-08T19:33:54;10.20;99.90
14771;DHT22;7477;45.222;5.688;2024-03-08T19:37:15;10.30;99.90
14771;DHT22;7477;45.222;5.688;2024-03-08T19:40:35;10.20;99.90
14771;DHT22;7477;45.222;5.688;2024-03-08T19:43:56;11.00;99.90
14771;DHT22;7477;45.222;5.688;2024-03-08T19:47:17;11.10;99.90
14771;DHT22;7477;45.222;5.688;2024-03-08T19:50:36;10.90;99.90
14771;DHT22;7477;45.222;5.688;2024-03-08T19:54:02;11.80;99.90
14771;DHT22;7477;45.222;5.688;2024-03-08T19:57:21;12.10;99.90
14771;DHT22;7477;45.222;5.688;2024-03-08T20:00:40;12.70;99.90
14771;DHT22;7477;45.222;5.688;2024-03-08T20:03:59;11.80;99.90
14771;DHT22;7477;45.222;5.688;2024-03-08T20:07:19;11.10;99.90
14771;DHT22;7477;45.222;5.688;2024-03-08T20:10:38;11.50;99.90
14771;DHT22;7477;45.222;5.688;2024-03-08T20:13:57;11.00;99.90
14771;DHT22;7477;45.222;5.688;2024-03-08T20:17:18;10.80;99.90
14771;DHT22;7477;45.222;5.688;2024-03-08T20:20:37;10.50;99.90
14771;DHT22;7477;45.222;5.688;2024-03-08T20:23:59;10.10;99.90
14771;DHT22;7477;45.222;5.688;2024-03-08T20:27:19;10.20;99.90
14771;DHT22;7477;45.222;5.688;2024-03-08T20:30:38;10.60;99.90
14771;DHT22;7477;45.222;5.688;2024-03-08T20:34:01;10.50;99.90
14771;DHT22;7477;45.222;5.688;2024-03-08T20:37:20;11.00;99.90
14771;DHT22;7477;45.222;5.688;2024-03-08T20:40:41;10.30;99.90
14771;DHT22;7477;45.222;5.688;2024-03-08T20:44:01;10.60;99.90
14771;DHT22;7477;45.222;5.688;2024-03-08T20:47:23;10.00;99.90
14771;DHT22;7477;45.222;5.688;2024-03-08T20:50:42;9.80;99.90
14771;DHT22;7477;45.222;5.688;2024-03-08T20:54:03;9.70;99.90
14771;DHT22;7477;45.222;5.688;2024-03-08T20:57:24;9.50;99.90
14771;DHT22;7477;45.222;5.688;2024-03-08T21:00:43;9.20;99.90
14771;DHT22;7477;45.222;5.688;2024-03-08T21:04:12;9.10;99.90
14771;DHT22;7477;45.222;5.688;2024-03-08T21:07:31;9.00;99.90
14771;DHT22;7477;45.222;5.688;2024-03-08T21:10:51;8.90;99.90
14771;DHT22;7477;45.222;5.688;2024-03-08T21:14:12;9.00;99.90
14771;DHT22;7477;45.222;5.688;2024-03-08T21:17:31;9.00;99.90
14771;DHT22;7477;45.222;5.688;2024-03-08T21:20:50;9.00;99.90
14771;DHT22;7477;45.222;5.688;2024-03-08T21:24:11;8.90;99.90
14771;DHT22;7477;45.222;5.688;2024-03-08T21:27:31;8.90;99.90
14771;DHT22;7477;45.222;5.688;2024-03-08T21:30:50;8.90;99.90
14771;DHT22;7477;45.222;5.688;2024-03-08T21:34:11;8.80;99.90
14771;DHT22;7477;45.222;5.688;2024-03-08T21:37:30;8.70;99.90
14771;DHT22;7477;45.222;5.688;2024-03-08T21:40:50;8.70;99.90
14771;DHT22;7477;45.222;5.688;2024-03-08T21:44:09;8.70;99.90
14771;DHT22;7477;45.222;5.688;2024-03-08T21:47:28;8.50;99.90
14771;DHT22;7477;45.222;5.688;2024-03-08T21:50:47;8.50;99.90
14771;DHT22;7477;45.222;5.688;2024-03-08T21:54:06;8.30;99.90
14771;DHT22;7477;45.222;5.688;2024-03-08T21:57:26;8.20;99.90
14771;DHT22;7477;45.222;5.688;2024-03-08T22:00:48;8.10;99.90
14771;DHT22;7477;45.222;5.688;2024-03-08T22:04:08;8.10;99.90
14771;DHT22;7477;45.222;5.688;2024-03-08T22:07:28;8.00;99.90
14771;DHT22;7477;45.222;5.688;2024-03-08T22:10:47;8.00;99.90
14771;DHT22;7477;45.222;5.688;2024-03-08T22:14:06;8.00;99.90
14771;DHT22;7477;45.222;5.688;2024-03-08T22:17:26;8.00;99.90
14771;DHT22;7477;45.222;5.688;2024-03-08T22:20:46;8.10;99.90
14771;DHT22;7477;45.222;5.688;2024-03-08T22:24:05;7.90;99.90
14771;DHT22;7477;45.222;5.688;2024-03-08T22:27:26;7.90;99.90
14771;DHT22;7477;45.222;5.688;2024-03-08T22:30:45;7.80;99.90
14771;DHT22;7477;45.222;5.688;2024-03-08T22:34:05;7.70;99.90
14771;DHT22;7477;45.222;5.688;2024-03-08T22:37:25;7.70;99.90
14771;DHT22;7477;45.222;5.688;2024-03-08T22:40:45;7.70;99.90
14771;DHT22;7477;45.222;5.688;2024-03-08T22:44:04;7.60;99.90
14771;DHT22;7477;45.222;5.688;2024-03-08T22:47:23;7.60;99.90
14771;DHT22;7477;45.222;5.688;2024-03-08T22:50:43;7.60;99.90
14771;DHT22;7477;45.222;5.688;2024-03-08T22:54:02;7.60;99.90
14771;DHT22;7477;45.222;5.688;2024-03-08T22:57:21;7.60;99.90
14771;DHT22;7477;45.222;5.688;2024-03-08T23:00:40;7.60;99.90
14771;DHT22;7477;45.222;5.688;2024-03-08T23:04:03;7.60;99.90
14771;DHT22;7477;45.222;5.688;2024-03-08T23:07:22;7.60;99.90
14771;DHT22;7477;45.222;5.688;2024-03-08T23:10:43;7.50;99.90
14771;DHT22;7477;45.222;5.688;2024-03-08T23:14:03;7.40;99.90
14771;DHT22;7477;45.222;5.688;2024-03-08T23:17:25;7.30;99.90
14771;DHT22;7477;45.222;5.688;2024-03-08T23:20:44;7.20;99.90
14771;DHT22;7477;45.222;5.688;2024-03-08T23:24:03;7.20;99.90
14771;DHT22;7477;45.222;5.688;2024-03-08T23:27:24;7.20;99.90
14771;DHT22;7477;45.222;5.688;2024-03-08T23:30:44;7.10;99.90
14771;DHT22;7477;45.222;5.688;2024-03-08T23:34:04;7.10;99.90
14771;DHT22;7477;45.222;5.688;2024-03-08T23:37:24;7.00;99.90
14771;DHT22;7477;45.222;5.688;2024-03-08T23:40:44;7.10;99.90
14771;DHT22;7477;45.222;5.688;2024-03-08T23:44:04;7.10;99.90
14771;DHT22;7477;45.222;5.688;2024-03-08T23:47:24;7.10;99.90
14771;DHT22;7477;45.222;5.688;2024-03-08T23:50:44;7.20;99.90
14771;DHT22;7477;45.222;5.688;2024-03-08T23:54:04;7.10;99.90
14771;DHT22;7477;45.222;5.688;2024-03-08T23:57:23;7.00;99.90
